sensor_id;sensor_type;location;lat;lon;timestamp;P1;durP1;ratioP1;P2;durP2;ratioP2
72156;SDS011;60035;52.122;5.406;2023-07-16T00:00:17;6.38;;;1.23;;
72156;SDS011;60035;52.122;5.406;2023-07-16T00:02:46;5.90;;;1.20;;
72156;SDS011;60035;52.122;5.406;2023-07-16T00:05:13;7.57;;;1.38;;
72156;SDS011;60035;52.122;5.406;2023-07-16T00:07:41;6.57;;;1.27;;
72156;SDS011;60035;52.122;5.406;2023-07-16T00:10:07;8.15;;;1.30;;
72156;SDS011;60035;52.122;5.406;2023-07-16T00:12:34;7.72;;;1.58;;
72156;SDS011;60035;52.122;5.406;2023-07-16T00:15:01;6.05;;;1.40;;
72156;SDS011;60035;52.122;5.406;2023-07-16T00:17:27;17.17;;;1.80;;
72156;SDS011;60035;52.122;5.406;2023-07-16T00:19:56;6.38;;;1.40;;
72156;SDS011;60035;52.122;5.406;2023-07-16T00:22:22;9.48;;;1.75;;
72156;SDS011;60035;52.122;5.406;2023-07-16T00:24:49;10.52;;;1.95;;
72156;SDS011;60035;52.122;5.406;2023-07-16T00:27:16;10.20;;;1.60;;
72156;SDS011;60035;52.122;5.406;2023-07-16T00:29:43;10.27;;;2.42;;
72156;SDS011;60035;52.122;5.406;2023-07-16T00:32:10;8.27;;;1.67;;
72156;SDS011;60035;52.122;5.406;2023-07-16T00:34:36;7.50;;;1.58;;
72156;SDS011;60035;52.122;5.406;2023-07-16T00:37:03;10.25;;;2.13;;
72156;SDS011;60035;52.122;5.406;2023-07-16T00:39:30;8.23;;;1.80;;
72156;SDS011;60035;52.122;5.406;2023-07-16T00:41:57;10.73;;;1.73;;
72156;SDS011;60035;52.122;5.406;2023-07-16T00:44:23;6.47;;;1.98;;
72156;SDS011;60035;52.122;5.406;2023-07-16T00:46:50;7.28;;;1.70;;
72156;SDS011;60035;52.122;5.406;2023-07-16T00:49:17;8.60;;;1.50;;
72156;SDS011;60035;52.122;5.406;2023-07-16T00:51:44;6.75;;;1.67;;
72156;SDS011;60035;52.122;5.406;2023-07-16T00:54:11;8.98;;;1.52;;
72156;SDS011;60035;52.122;5.406;2023-07-16T00:56:38;8.35;;;1.60;;
72156;SDS011;60035;52.122;5.406;2023-07-16T00:59:04;8.13;;;1.63;;
72156;SDS011;60035;52.122;5.406;2023-07-16T01:01:31;8.02;;;1.60;;
72156;SDS011;60035;52.122;5.406;2023-07-16T01:03:58;9.88;;;1.48;;
72156;SDS011;60035;52.122;5.406;2023-07-16T01:09:04;6.22;;;1.83;;
72156;SDS011;60035;52.122;5.406;2023-07-16T01:11:41;6.10;;;1.77;;
72156;SDS011;60035;52.122;5.406;2023-07-16T01:14:09;9.23;;;1.75;;
72156;SDS011;60035;52.122;5.406;2023-07-16T01:16:36;8.13;;;1.70;;
72156;SDS011;60035;52.122;5.406;2023-07-16T01:19:03;8.30;;;1.70;;
72156;SDS011;60035;52.122;5.406;2023-07-16T01:21:43;8.35;;;2.17;;
72156;SDS011;60035;52.122;5.406;2023-07-16T01:29:55;6.35;;;1.83;;
72156;SDS011;60035;52.122;5.406;2023-07-16T01:32:27;8.07;;;2.05;;
72156;SDS011;60035;52.122;5.406;2023-07-16T01:34:56;8.45;;;1.90;;
72156;SDS011;60035;52.122;5.406;2023-07-16T01:37:23;6.85;;;1.77;;
72156;SDS011;60035;52.122;5.406;2023-07-16T01:39:50;8.57;;;2.17;;
72156;SDS011;60035;52.122;5.406;2023-07-16T01:42:17;9.75;;;2.28;;
72156;SDS011;60035;52.122;5.406;2023-07-16T01:44:43;7.55;;;2.10;;
72156;SDS011;60035;52.122;5.406;2023-07-16T01:47:14;9.85;;;2.22;;
72156;SDS011;60035;52.122;5.406;2023-07-16T01:49:49;8.38;;;2.38;;
72156;SDS011;60035;52.122;5.406;2023-07-16T01:52:15;8.52;;;2.60;;
72156;SDS011;60035;52.122;5.406;2023-07-16T01:54:42;7.65;;;2.10;;
72156;SDS011;60035;52.122;5.406;2023-07-16T01:57:09;10.25;;;2.50;;
72156;SDS011;60035;52.122;5.406;2023-07-16T01:59:35;8.45;;;2.00;;
72156;SDS011;60035;52.122;5.406;2023-07-16T02:02:02;9.02;;;2.13;;
72156;SDS011;60035;52.122;5.406;2023-07-16T02:04:30;10.73;;;2.50;;
72156;SDS011;60035;52.122;5.406;2023-07-16T02:06:57;9.23;;;2.45;;
72156;SDS011;60035;52.122;5.406;2023-07-16T02:09:24;10.52;;;2.30;;
72156;SDS011;60035;52.122;5.406;2023-07-16T02:11:51;9.80;;;2.50;;
72156;SDS011;60035;52.122;5.406;2023-07-16T02:14:18;11.15;;;2.65;;
72156;SDS011;60035;52.122;5.406;2023-07-16T02:16:44;8.85;;;2.20;;
72156;SDS011;60035;52.122;5.406;2023-07-16T02:19:11;10.07;;;2.85;;
72156;SDS011;60035;52.122;5.406;2023-07-16T02:21:38;7.28;;;2.22;;
72156;SDS011;60035;52.122;5.406;2023-07-16T02:24:04;9.63;;;2.80;;
72156;SDS011;60035;52.122;5.406;2023-07-16T02:26:31;10.48;;;2.40;;
72156;SDS011;60035;52.122;5.406;2023-07-16T02:28:57;12.48;;;3.00;;
72156;SDS011;60035;52.122;5.406;2023-07-16T02:31:25;8.07;;;2.40;;
72156;SDS011;60035;52.122;5.406;2023-07-16T02:33:52;12.63;;;2.25;;
72156;SDS011;60035;52.122;5.406;2023-07-16T02:36:18;8.75;;;2.50;;
72156;SDS011;60035;52.122;5.406;2023-07-16T02:38:45;9.68;;;2.58;;
72156;SDS011;60035;52.122;5.406;2023-07-16T02:41:11;13.50;;;2.80;;
72156;SDS011;60035;52.122;5.406;2023-07-16T02:43:38;10.35;;;2.75;;
72156;SDS011;60035;52.122;5.406;2023-07-16T02:46:04;12.35;;;2.88;;
72156;SDS011;60035;52.122;5.406;2023-07-16T02:48:31;14.00;;;2.58;;
72156;SDS011;60035;52.122;5.406;2023-07-16T02:50:57;13.60;;;2.60;;
72156;SDS011;60035;52.122;5.406;2023-07-16T02:53:24;10.52;;;2.50;;
72156;SDS011;60035;52.122;5.406;2023-07-16T02:55:50;10.25;;;2.40;;
72156;SDS011;60035;52.122;5.406;2023-07-16T02:58:17;8.02;;;2.63;;
72156;SDS011;60035;52.122;5.406;2023-07-16T03:00:43;9.02;;;2.50;;
72156;SDS011;60035;52.122;5.406;2023-07-16T03:03:10;10.38;;;2.15;;
72156;SDS011;60035;52.122;5.406;2023-07-16T03:05:36;7.00;;;2.17;;
72156;SDS011;60035;52.122;5.406;2023-07-16T03:08:03;7.13;;;2.30;;
72156;SDS011;60035;52.122;5.406;2023-07-16T03:10:30;12.27;;;2.95;;
72156;SDS011;60035;52.122;5.406;2023-07-16T03:12:56;6.25;;;1.90;;
72156;SDS011;60035;52.122;5.406;2023-07-16T03:15:23;11.98;;;2.25;;
72156;SDS011;60035;52.122;5.406;2023-07-16T03:17:49;8.90;;;2.35;;
72156;SDS011;60035;52.122;5.406;2023-07-16T03:20:16;7.18;;;1.98;;
72156;SDS011;60035;52.122;5.406;2023-07-16T03:22:42;9.55;;;2.70;;
72156;SDS011;60035;52.122;5.406;2023-07-16T03:25:09;10.73;;;2.47;;
72156;SDS011;60035;52.122;5.406;2023-07-16T03:27:36;10.63;;;2.13;;
72156;SDS011;60035;52.122;5.406;2023-07-16T03:30:02;10.60;;;2.25;;
72156;SDS011;60035;52.122;5.406;2023-07-16T03:32:30;10.50;;;2.20;;
72156;SDS011;60035;52.122;5.406;2023-07-16T03:35:15;15.70;;;2.83;;
72156;SDS011;60035;52.122;5.406;2023-07-16T03:37:42;10.95;;;2.60;;
72156;SDS011;60035;52.122;5.406;2023-07-16T03:40:15;8.20;;;2.40;;
72156;SDS011;60035;52.122;5.406;2023-07-16T03:42:42;9.25;;;2.30;;
72156;SDS011;60035;52.122;5.406;2023-07-16T03:45:10;9.90;;;2.50;;
72156;SDS011;60035;52.122;5.406;2023-07-16T03:47:37;8.15;;;2.53;;
72156;SDS011;60035;52.122;5.406;2023-07-16T03:50:04;10.10;;;2.17;;
72156;SDS011;60035;52.122;5.406;2023-07-16T03:52:31;9.45;;;2.70;;
72156;SDS011;60035;52.122;5.406;2023-07-16T03:54:58;9.43;;;2.25;;
72156;SDS011;60035;52.122;5.406;2023-07-16T03:57:25;10.55;;;2.55;;
72156;SDS011;60035;52.122;5.406;2023-07-16T03:59:52;10.13;;;2.85;;
72156;SDS011;60035;52.122;5.406;2023-07-16T04:02:18;10.45;;;2.42;;
72156;SDS011;60035;52.122;5.406;2023-07-16T04:04:45;8.68;;;2.20;;
72156;SDS011;60035;52.122;5.406;2023-07-16T04:07:12;9.70;;;2.28;;
72156;SDS011;60035;52.122;5.406;2023-07-16T04:09:38;10.80;;;2.28;;
72156;SDS011;60035;52.122;5.406;2023-07-16T04:12:06;9.32;;;2.47;;
72156;SDS011;60035;52.122;5.406;2023-07-16T04:14:33;7.50;;;2.30;;
72156;SDS011;60035;52.122;5.406;2023-07-16T04:16:59;9.23;;;2.53;;
72156;SDS011;60035;52.122;5.406;2023-07-16T04:19:26;10.23;;;2.53;;
72156;SDS011;60035;52.122;5.406;2023-07-16T04:21:52;10.88;;;2.58;;
72156;SDS011;60035;52.122;5.406;2023-07-16T04:24:19;11.00;;;2.53;;
72156;SDS011;60035;52.122;5.406;2023-07-16T04:26:45;9.43;;;2.60;;
72156;SDS011;60035;52.122;5.406;2023-07-16T04:29:12;8.52;;;2.67;;
72156;SDS011;60035;52.122;5.406;2023-07-16T04:31:38;10.27;;;3.28;;
72156;SDS011;60035;52.122;5.406;2023-07-16T04:34:05;8.52;;;2.67;;
72156;SDS011;60035;52.122;5.406;2023-07-16T04:36:32;10.98;;;2.70;;
72156;SDS011;60035;52.122;5.406;2023-07-16T04:38:58;9.43;;;2.85;;
72156;SDS011;60035;52.122;5.406;2023-07-16T04:41:25;11.10;;;2.92;;
72156;SDS011;60035;52.122;5.406;2023-07-16T04:43:51;8.25;;;2.63;;
72156;SDS011;60035;52.122;5.406;2023-07-16T04:46:18;12.75;;;2.95;;
72156;SDS011;60035;52.122;5.406;2023-07-16T04:48:45;8.23;;;2.83;;
72156;SDS011;60035;52.122;5.406;2023-07-16T04:51:12;10.98;;;2.83;;
72156;SDS011;60035;52.122;5.406;2023-07-16T04:53:38;10.95;;;3.00;;
72156;SDS011;60035;52.122;5.406;2023-07-16T04:56:10;10.20;;;2.70;;
72156;SDS011;60035;52.122;5.406;2023-07-16T04:58:38;9.68;;;2.95;;
72156;SDS011;60035;52.122;5.406;2023-07-16T05:01:05;9.35;;;2.60;;
72156;SDS011;60035;52.122;5.406;2023-07-16T05:03:31;10.73;;;2.88;;
72156;SDS011;60035;52.122;5.406;2023-07-16T05:05:58;10.82;;;3.28;;
72156;SDS011;60035;52.122;5.406;2023-07-16T05:08:25;10.57;;;3.05;;
72156;SDS011;60035;52.122;5.406;2023-07-16T05:10:51;12.35;;;3.05;;
72156;SDS011;60035;52.122;5.406;2023-07-16T05:13:18;11.05;;;2.90;;
72156;SDS011;60035;52.122;5.406;2023-07-16T05:15:44;12.77;;;3.22;;
72156;SDS011;60035;52.122;5.406;2023-07-16T05:18:11;10.15;;;3.00;;
72156;SDS011;60035;52.122;5.406;2023-07-16T05:20:38;10.68;;;3.10;;
72156;SDS011;60035;52.122;5.406;2023-07-16T05:23:04;10.25;;;3.00;;
72156;SDS011;60035;52.122;5.406;2023-07-16T05:25:31;8.30;;;2.63;;
72156;SDS011;60035;52.122;5.406;2023-07-16T05:27:58;13.88;;;3.58;;
72156;SDS011;60035;52.122;5.406;2023-07-16T05:30:24;10.73;;;3.65;;
72156;SDS011;60035;52.122;5.406;2023-07-16T05:32:51;9.60;;;3.45;;
72156;SDS011;60035;52.122;5.406;2023-07-16T05:35:17;9.23;;;3.00;;
72156;SDS011;60035;52.122;5.406;2023-07-16T05:37:44;13.00;;;3.60;;
72156;SDS011;60035;52.122;5.406;2023-07-16T05:40:11;14.43;;;3.65;;
72156;SDS011;60035;52.122;5.406;2023-07-16T05:42:37;7.90;;;3.10;;
72156;SDS011;60035;52.122;5.406;2023-07-16T05:45:04;7.68;;;2.80;;
72156;SDS011;60035;52.122;5.406;2023-07-16T05:47:31;11.38;;;3.50;;
72156;SDS011;60035;52.122;5.406;2023-07-16T05:49:57;9.95;;;3.58;;
72156;SDS011;60035;52.122;5.406;2023-07-16T05:52:24;11.98;;;3.30;;
72156;SDS011;60035;52.122;5.406;2023-07-16T05:54:50;10.00;;;3.03;;
72156;SDS011;60035;52.122;5.406;2023-07-16T05:57:17;13.00;;;3.50;;
72156;SDS011;60035;52.122;5.406;2023-07-16T05:59:43;10.80;;;3.25;;
72156;SDS011;60035;52.122;5.406;2023-07-16T06:02:10;11.05;;;3.70;;
72156;SDS011;60035;52.122;5.406;2023-07-16T06:04:37;11.48;;;3.60;;
72156;SDS011;60035;52.122;5.406;2023-07-16T06:07:03;9.52;;;3.40;;
72156;SDS011;60035;52.122;5.406;2023-07-16T06:09:30;10.27;;;3.28;;
72156;SDS011;60035;52.122;5.406;2023-07-16T06:11:57;8.90;;;3.03;;
72156;SDS011;60035;52.122;5.406;2023-07-16T06:14:23;12.23;;;3.78;;
72156;SDS011;60035;52.122;5.406;2023-07-16T06:16:50;12.73;;;3.17;;
72156;SDS011;60035;52.122;5.406;2023-07-16T06:19:17;10.05;;;3.28;;
72156;SDS011;60035;52.122;5.406;2023-07-16T06:21:43;11.45;;;3.47;;
72156;SDS011;60035;52.122;5.406;2023-07-16T06:24:10;9.52;;;3.22;;
72156;SDS011;60035;52.122;5.406;2023-07-16T06:26:40;10.65;;;3.35;;
72156;SDS011;60035;52.122;5.406;2023-07-16T06:29:06;10.90;;;3.03;;
72156;SDS011;60035;52.122;5.406;2023-07-16T06:31:33;11.90;;;3.97;;
72156;SDS011;60035;52.122;5.406;2023-07-16T06:34:00;15.90;;;3.72;;
72156;SDS011;60035;52.122;5.406;2023-07-16T06:36:26;15.93;;;3.42;;
72156;SDS011;60035;52.122;5.406;2023-07-16T06:38:53;10.77;;;3.63;;
72156;SDS011;60035;52.122;5.406;2023-07-16T06:41:19;13.23;;;3.42;;
72156;SDS011;60035;52.122;5.406;2023-07-16T06:43:46;10.82;;;3.47;;
72156;SDS011;60035;52.122;5.406;2023-07-16T06:46:12;11.90;;;3.58;;
72156;SDS011;60035;52.122;5.406;2023-07-16T06:48:39;12.20;;;3.72;;
72156;SDS011;60035;52.122;5.406;2023-07-16T06:51:06;12.30;;;3.55;;
72156;SDS011;60035;52.122;5.406;2023-07-16T06:53:32;9.77;;;3.53;;
72156;SDS011;60035;52.122;5.406;2023-07-16T06:55:59;12.25;;;3.88;;
72156;SDS011;60035;52.122;5.406;2023-07-16T06:58:32;9.82;;;3.42;;
72156;SDS011;60035;52.122;5.406;2023-07-16T07:00:59;12.73;;;3.85;;
72156;SDS011;60035;52.122;5.406;2023-07-16T07:03:26;11.38;;;3.33;;
72156;SDS011;60035;52.122;5.406;2023-07-16T07:05:53;13.57;;;3.95;;
72156;SDS011;60035;52.122;5.406;2023-07-16T07:08:20;10.23;;;3.30;;
72156;SDS011;60035;52.122;5.406;2023-07-16T07:10:48;10.93;;;3.45;;
72156;SDS011;60035;52.122;5.406;2023-07-16T07:13:15;10.23;;;3.53;;
72156;SDS011;60035;52.122;5.406;2023-07-16T07:15:42;8.23;;;3.25;;
72156;SDS011;60035;52.122;5.406;2023-07-16T07:18:08;13.52;;;4.18;;
72156;SDS011;60035;52.122;5.406;2023-07-16T07:20:35;10.73;;;3.42;;
72156;SDS011;60035;52.122;5.406;2023-07-16T07:23:02;12.45;;;3.60;;
72156;SDS011;60035;52.122;5.406;2023-07-16T07:25:29;12.77;;;3.70;;
72156;SDS011;60035;52.122;5.406;2023-07-16T07:27:57;13.07;;;3.40;;
72156;SDS011;60035;52.122;5.406;2023-07-16T07:30:24;12.40;;;3.67;;
72156;SDS011;60035;52.122;5.406;2023-07-16T07:32:50;12.02;;;3.70;;
72156;SDS011;60035;52.122;5.406;2023-07-16T07:35:17;14.32;;;3.70;;
72156;SDS011;60035;52.122;5.406;2023-07-16T07:37:43;12.00;;;3.65;;
72156;SDS011;60035;52.122;5.406;2023-07-16T07:40:10;13.85;;;4.18;;
72156;SDS011;60035;52.122;5.406;2023-07-16T07:42:36;16.00;;;3.67;;
72156;SDS011;60035;52.122;5.406;2023-07-16T07:45:03;11.52;;;3.80;;
72156;SDS011;60035;52.122;5.406;2023-07-16T07:47:30;10.77;;;3.70;;
72156;SDS011;60035;52.122;5.406;2023-07-16T07:49:57;11.15;;;3.45;;
72156;SDS011;60035;52.122;5.406;2023-07-16T07:52:23;10.65;;;3.70;;
72156;SDS011;60035;52.122;5.406;2023-07-16T07:54:50;9.88;;;3.30;;
72156;SDS011;60035;52.122;5.406;2023-07-16T07:57:17;10.07;;;3.25;;
72156;SDS011;60035;52.122;5.406;2023-07-16T07:59:44;10.27;;;3.42;;
72156;SDS011;60035;52.122;5.406;2023-07-16T08:02:10;10.82;;;3.33;;
72156;SDS011;60035;52.122;5.406;2023-07-16T08:04:37;12.10;;;3.50;;
72156;SDS011;60035;52.122;5.406;2023-07-16T08:07:03;10.88;;;3.38;;
72156;SDS011;60035;52.122;5.406;2023-07-16T08:09:30;10.00;;;3.50;;
72156;SDS011;60035;52.122;5.406;2023-07-16T08:11:57;13.15;;;3.53;;
72156;SDS011;60035;52.122;5.406;2023-07-16T08:14:23;11.77;;;3.85;;
72156;SDS011;60035;52.122;5.406;2023-07-16T08:16:50;10.73;;;3.40;;
72156;SDS011;60035;52.122;5.406;2023-07-16T08:19:16;10.77;;;3.40;;
72156;SDS011;60035;52.122;5.406;2023-07-16T08:21:43;14.13;;;3.92;;
72156;SDS011;60035;52.122;5.406;2023-07-16T08:24:10;11.95;;;3.88;;
72156;SDS011;60035;52.122;5.406;2023-07-16T08:26:36;12.88;;;4.00;;
72156;SDS011;60035;52.122;5.406;2023-07-16T08:29:03;11.10;;;3.72;;
72156;SDS011;60035;52.122;5.406;2023-07-16T08:31:30;10.82;;;3.20;;
72156;SDS011;60035;52.122;5.406;2023-07-16T08:33:56;10.23;;;3.33;;
72156;SDS011;60035;52.122;5.406;2023-07-16T08:36:25;12.48;;;3.75;;
72156;SDS011;60035;52.122;5.406;2023-07-16T08:38:52;9.70;;;3.80;;
72156;SDS011;60035;52.122;5.406;2023-07-16T08:41:18;10.55;;;3.55;;
72156;SDS011;60035;52.122;5.406;2023-07-16T08:43:46;10.65;;;3.72;;
72156;SDS011;60035;52.122;5.406;2023-07-16T08:46:14;11.23;;;3.90;;
72156;SDS011;60035;52.122;5.406;2023-07-16T08:48:42;12.43;;;3.85;;
72156;SDS011;60035;52.122;5.406;2023-07-16T08:51:10;10.48;;;3.35;;
72156;SDS011;60035;52.122;5.406;2023-07-16T08:56:07;13.18;;;4.15;;
72156;SDS011;60035;52.122;5.406;2023-07-16T08:58:34;9.68;;;3.47;;
72156;SDS011;60035;52.122;5.406;2023-07-16T09:01:03;13.95;;;4.03;;
72156;SDS011;60035;52.122;5.406;2023-07-16T09:03:32;12.88;;;4.13;;
72156;SDS011;60035;52.122;5.406;2023-07-16T09:05:58;9.68;;;3.67;;
72156;SDS011;60035;52.122;5.406;2023-07-16T09:08:25;10.60;;;3.83;;
72156;SDS011;60035;52.122;5.406;2023-07-16T09:10:55;10.30;;;4.13;;
72156;SDS011;60035;52.122;5.406;2023-07-16T09:13:23;10.43;;;4.18;;
72156;SDS011;60035;52.122;5.406;2023-07-16T09:15:55;14.80;;;4.22;;
72156;SDS011;60035;52.122;5.406;2023-07-16T09:18:27;8.27;;;3.55;;
72156;SDS011;60035;52.122;5.406;2023-07-16T09:20:54;12.75;;;4.13;;
72156;SDS011;60035;52.122;5.406;2023-07-16T09:23:26;11.30;;;3.67;;
72156;SDS011;60035;52.122;5.406;2023-07-16T09:25:53;12.82;;;4.10;;
72156;SDS011;60035;52.122;5.406;2023-07-16T09:28:21;9.60;;;3.72;;
72156;SDS011;60035;52.122;5.406;2023-07-16T09:30:48;10.13;;;4.10;;
72156;SDS011;60035;52.122;5.406;2023-07-16T09:35:42;10.57;;;3.63;;
72156;SDS011;60035;52.122;5.406;2023-07-16T09:38:13;10.90;;;3.00;;
72156;SDS011;60035;52.122;5.406;2023-07-16T09:40:41;8.68;;;3.63;;
72156;SDS011;60035;52.122;5.406;2023-07-16T09:43:09;9.00;;;3.10;;
72156;SDS011;60035;52.122;5.406;2023-07-16T09:45:36;9.10;;;3.30;;
72156;SDS011;60035;52.122;5.406;2023-07-16T09:48:04;11.27;;;3.80;;
72156;SDS011;60035;52.122;5.406;2023-07-16T09:50:32;10.30;;;3.47;;
72156;SDS011;60035;52.122;5.406;2023-07-16T09:53:00;10.13;;;3.55;;
72156;SDS011;60035;52.122;5.406;2023-07-16T09:55:30;10.57;;;3.42;;
72156;SDS011;60035;52.122;5.406;2023-07-16T09:58:00;9.13;;;3.38;;
72156;SDS011;60035;52.122;5.406;2023-07-16T10:00:29;10.80;;;3.50;;
72156;SDS011;60035;52.122;5.406;2023-07-16T10:03:02;12.43;;;3.35;;
72156;SDS011;60035;52.122;5.406;2023-07-16T10:05:35;11.02;;;3.70;;
72156;SDS011;60035;52.122;5.406;2023-07-16T10:08:03;11.02;;;3.47;;
72156;SDS011;60035;52.122;5.406;2023-07-16T10:10:39;10.68;;;3.75;;
72156;SDS011;60035;52.122;5.406;2023-07-16T10:13:13;10.23;;;3.33;;
72156;SDS011;60035;52.122;5.406;2023-07-16T10:15:58;9.70;;;3.83;;
72156;SDS011;60035;52.122;5.406;2023-07-16T10:18:29;10.68;;;3.67;;
72156;SDS011;60035;52.122;5.406;2023-07-16T10:23:36;9.35;;;3.40;;
72156;SDS011;60035;52.122;5.406;2023-07-16T10:26:07;9.55;;;3.05;;
72156;SDS011;60035;52.122;5.406;2023-07-16T10:28:36;9.27;;;3.40;;
72156;SDS011;60035;52.122;5.406;2023-07-16T10:31:03;13.60;;;3.50;;
72156;SDS011;60035;52.122;5.406;2023-07-16T10:33:30;10.52;;;3.50;;
72156;SDS011;60035;52.122;5.406;2023-07-16T10:35:57;10.48;;;3.58;;
72156;SDS011;60035;52.122;5.406;2023-07-16T10:38:27;11.13;;;3.47;;
72156;SDS011;60035;52.122;5.406;2023-07-16T10:40:55;11.10;;;3.45;;
72156;SDS011;60035;52.122;5.406;2023-07-16T10:43:22;12.48;;;5.07;;
72156;SDS011;60035;52.122;5.406;2023-07-16T10:45:50;9.82;;;4.10;;
72156;SDS011;60035;52.122;5.406;2023-07-16T10:48:17;8.13;;;3.35;;
72156;SDS011;60035;52.122;5.406;2023-07-16T10:50:44;9.20;;;3.28;;
72156;SDS011;60035;52.122;5.406;2023-07-16T10:53:10;10.07;;;3.17;;
72156;SDS011;60035;52.122;5.406;2023-07-16T10:55:37;10.93;;;3.42;;
72156;SDS011;60035;52.122;5.406;2023-07-16T10:58:05;9.07;;;3.28;;
72156;SDS011;60035;52.122;5.406;2023-07-16T11:00:38;10.82;;;3.65;;
72156;SDS011;60035;52.122;5.406;2023-07-16T11:03:05;8.60;;;3.42;;
72156;SDS011;60035;52.122;5.406;2023-07-16T11:05:35;9.45;;;3.42;;
72156;SDS011;60035;52.122;5.406;2023-07-16T11:08:01;9.88;;;3.42;;
72156;SDS011;60035;52.122;5.406;2023-07-16T11:10:29;8.73;;;3.40;;
72156;SDS011;60035;52.122;5.406;2023-07-16T11:12:56;9.80;;;3.30;;
72156;SDS011;60035;52.122;5.406;2023-07-16T11:15:31;10.60;;;3.67;;
72156;SDS011;60035;52.122;5.406;2023-07-16T11:18:00;11.02;;;3.38;;
72156;SDS011;60035;52.122;5.406;2023-07-16T11:20:28;9.98;;;3.28;;
72156;SDS011;60035;52.122;5.406;2023-07-16T11:22:57;8.82;;;3.22;;
72156;SDS011;60035;52.122;5.406;2023-07-16T11:25:25;9.07;;;3.20;;
72156;SDS011;60035;52.122;5.406;2023-07-16T11:27:53;6.78;;;2.63;;
72156;SDS011;60035;52.122;5.406;2023-07-16T11:30:24;8.27;;;2.85;;
72156;SDS011;60035;52.122;5.406;2023-07-16T11:32:52;8.85;;;3.08;;
72156;SDS011;60035;52.122;5.406;2023-07-16T11:35:19;7.68;;;2.78;;
72156;SDS011;60035;52.122;5.406;2023-07-16T11:37:47;7.45;;;2.75;;
72156;SDS011;60035;52.122;5.406;2023-07-16T11:40:15;7.47;;;2.75;;
72156;SDS011;60035;52.122;5.406;2023-07-16T11:42:45;8.70;;;3.17;;
72156;SDS011;60035;52.122;5.406;2023-07-16T11:45:16;7.93;;;3.08;;
72156;SDS011;60035;52.122;5.406;2023-07-16T11:47:46;9.32;;;2.28;;
72156;SDS011;60035;52.122;5.406;2023-07-16T11:50:13;7.40;;;2.50;;
72156;SDS011;60035;52.122;5.406;2023-07-16T11:52:40;7.57;;;2.60;;
72156;SDS011;60035;52.122;5.406;2023-07-16T11:55:07;7.25;;;2.30;;
72156;SDS011;60035;52.122;5.406;2023-07-16T11:57:34;5.57;;;1.92;;
72156;SDS011;60035;52.122;5.406;2023-07-16T12:00:02;5.93;;;1.70;;
72156;SDS011;60035;52.122;5.406;2023-07-16T12:02:29;6.47;;;1.35;;
72156;SDS011;60035;52.122;5.406;2023-07-16T12:04:56;4.93;;;1.70;;
72156;SDS011;60035;52.122;5.406;2023-07-16T12:07:33;4.88;;;1.40;;
72156;SDS011;60035;52.122;5.406;2023-07-16T12:10:02;8.43;;;1.52;;
72156;SDS011;60035;52.122;5.406;2023-07-16T12:12:29;5.30;;;1.73;;
72156;SDS011;60035;52.122;5.406;2023-07-16T12:14:56;5.82;;;1.42;;
72156;SDS011;60035;52.122;5.406;2023-07-16T12:17:23;5.65;;;1.48;;
72156;SDS011;60035;52.122;5.406;2023-07-16T12:19:50;5.90;;;1.80;;
72156;SDS011;60035;52.122;5.406;2023-07-16T12:22:17;6.53;;;1.55;;
72156;SDS011;60035;52.122;5.406;2023-07-16T12:24:44;6.22;;;1.60;;
72156;SDS011;60035;52.122;5.406;2023-07-16T12:27:14;4.05;;;1.08;;
72156;SDS011;60035;52.122;5.406;2023-07-16T12:29:41;4.63;;;1.30;;
72156;SDS011;60035;52.122;5.406;2023-07-16T12:32:07;6.85;;;1.25;;
72156;SDS011;60035;52.122;5.406;2023-07-16T12:34:35;4.82;;;1.30;;
72156;SDS011;60035;52.122;5.406;2023-07-16T12:37:02;6.05;;;1.35;;
72156;SDS011;60035;52.122;5.406;2023-07-16T12:39:29;6.85;;;1.45;;
72156;SDS011;60035;52.122;5.406;2023-07-16T12:41:55;5.55;;;1.50;;
72156;SDS011;60035;52.122;5.406;2023-07-16T12:44:22;4.43;;;1.42;;
72156;SDS011;60035;52.122;5.406;2023-07-16T12:46:49;5.40;;;1.33;;
72156;SDS011;60035;52.122;5.406;2023-07-16T12:49:15;6.97;;;1.25;;
72156;SDS011;60035;52.122;5.406;2023-07-16T12:51:42;4.13;;;1.00;;
72156;SDS011;60035;52.122;5.406;2023-07-16T12:54:08;6.70;;;1.40;;
72156;SDS011;60035;52.122;5.406;2023-07-16T12:56:35;9.87;;;1.63;;
72156;SDS011;60035;52.122;5.406;2023-07-16T12:59:01;4.25;;;1.20;;
72156;SDS011;60035;52.122;5.406;2023-07-16T13:01:27;5.80;;;1.20;;
72156;SDS011;60035;52.122;5.406;2023-07-16T13:03:57;6.43;;;1.20;;
72156;SDS011;60035;52.122;5.406;2023-07-16T13:06:23;6.53;;;1.23;;
72156;SDS011;60035;52.122;5.406;2023-07-16T13:08:50;6.47;;;1.05;;
72156;SDS011;60035;52.122;5.406;2023-07-16T13:11:18;5.55;;;1.15;;
72156;SDS011;60035;52.122;5.406;2023-07-16T13:13:44;5.28;;;1.33;;
72156;SDS011;60035;52.122;5.406;2023-07-16T13:16:11;6.47;;;1.20;;
72156;SDS011;60035;52.122;5.406;2023-07-16T13:18:38;4.68;;;1.08;;
72156;SDS011;60035;52.122;5.406;2023-07-16T13:21:04;5.82;;;1.05;;
72156;SDS011;60035;52.122;5.406;2023-07-16T13:23:31;4.10;;;0.90;;
72156;SDS011;60035;52.122;5.406;2023-07-16T13:26:04;5.28;;;0.98;;
72156;SDS011;60035;52.122;5.406;2023-07-16T13:28:30;6.35;;;1.15;;
72156;SDS011;60035;52.122;5.406;2023-07-16T13:30:57;4.50;;;1.10;;
72156;SDS011;60035;52.122;5.406;2023-07-16T13:33:23;8.57;;;1.08;;
72156;SDS011;60035;52.122;5.406;2023-07-16T13:35:50;3.65;;;0.70;;
72156;SDS011;60035;52.122;5.406;2023-07-16T13:38:16;7.28;;;1.20;;
72156;SDS011;60035;52.122;5.406;2023-07-16T13:40:43;5.22;;;1.00;;
72156;SDS011;60035;52.122;5.406;2023-07-16T13:43:10;4.10;;;1.13;;
72156;SDS011;60035;52.122;5.406;2023-07-16T13:45:38;7.13;;;0.93;;
72156;SDS011;60035;52.122;5.406;2023-07-16T13:48:05;5.63;;;0.90;;
72156;SDS011;60035;52.122;5.406;2023-07-16T13:50:32;4.85;;;1.15;;
72156;SDS011;60035;52.122;5.406;2023-07-16T13:52:58;4.13;;;0.93;;
72156;SDS011;60035;52.122;5.406;2023-07-16T13:55:27;7.88;;;1.15;;
72156;SDS011;60035;52.122;5.406;2023-07-16T13:57:55;3.53;;;1.00;;
72156;SDS011;60035;52.122;5.406;2023-07-16T14:00:22;5.13;;;1.00;;
72156;SDS011;60035;52.122;5.406;2023-07-16T14:02:49;6.07;;;1.20;;
72156;SDS011;60035;52.122;5.406;2023-07-16T14:05:16;5.50;;;1.05;;
72156;SDS011;60035;52.122;5.406;2023-07-16T14:07:43;3.63;;;0.88;;
72156;SDS011;60035;52.122;5.406;2023-07-16T14:10:09;3.75;;;0.82;;
72156;SDS011;60035;52.122;5.406;2023-07-16T14:12:36;4.13;;;0.80;;
72156;SDS011;60035;52.122;5.406;2023-07-16T14:15:03;8.02;;;1.50;;
72156;SDS011;60035;52.122;5.406;2023-07-16T14:17:30;4.45;;;0.90;;
72156;SDS011;60035;52.122;5.406;2023-07-16T14:19:56;3.83;;;0.80;;
72156;SDS011;60035;52.122;5.406;2023-07-16T14:22:23;6.20;;;1.02;;
72156;SDS011;60035;52.122;5.406;2023-07-16T14:24:54;4.40;;;0.73;;
72156;SDS011;60035;52.122;5.406;2023-07-16T14:27:20;4.65;;;0.80;;
72156;SDS011;60035;52.122;5.406;2023-07-16T14:29:47;6.47;;;0.98;;
72156;SDS011;60035;52.122;5.406;2023-07-16T14:32:30;6.68;;;1.17;;
72156;SDS011;60035;52.122;5.406;2023-07-16T14:34:58;6.60;;;0.90;;
72156;SDS011;60035;52.122;5.406;2023-07-16T14:37:25;4.10;;;0.75;;
72156;SDS011;60035;52.122;5.406;2023-07-16T14:39:51;5.28;;;1.13;;
72156;SDS011;60035;52.122;5.406;2023-07-16T14:42:18;4.18;;;1.10;;
72156;SDS011;60035;52.122;5.406;2023-07-16T14:44:45;5.60;;;0.98;;
72156;SDS011;60035;52.122;5.406;2023-07-16T14:47:11;5.95;;;1.27;;
72156;SDS011;60035;52.122;5.406;2023-07-16T14:49:38;4.65;;;1.30;;
72156;SDS011;60035;52.122;5.406;2023-07-16T14:52:04;6.63;;;1.15;;
72156;SDS011;60035;52.122;5.406;2023-07-16T14:54:31;3.80;;;0.93;;
72156;SDS011;60035;52.122;5.406;2023-07-16T14:57:00;3.58;;;1.08;;